sensor_id;sensor_type;location;lat;lon;timestamp;temperature;humidity
10964;DHT22;5534;48.784;9.190;2023-05-07T00:00:28;17.70;99.90
10964;DHT22;5534;48.784;9.190;2023-05-07T00:02:54;17.60;99.90
10964;DHT22;5534;48.784;9.190;2023-05-07T00:05:20;17.60;99.90
10964;DHT22;5534;48.784;9.190;2023-05-07T00:07:46;17.60;99.90
10964;DHT22;5534;48.784;9.190;2023-05-07T00:10:12;17.60;99.90
10964;DHT22;5534;48.784;9.190;2023-05-07T00:12:38;17.40;99.90
10964;DHT22;5534;48.784;9.190;2023-05-07T00:15:04;17.30;99.90
10964;DHT22;5534;48.784;9.190;2023-05-07T00:17:33;17.10;99.90
10964;DHT22;5534;48.784;9.190;2023-05-07T00:19:59;17.20;99.90
10964;DHT22;5534;48.784;9.190;2023-05-07T00:22:25;17.30;99.90
10964;DHT22;5534;48.784;9.190;2023-05-07T00:24:50;17.20;99.90
10964;DHT22;5534;48.784;9.190;2023-05-07T00:27:16;17.00;99.90
10964;DHT22;5534;48.784;9.190;2023-05-07T00:29:42;17.10;99.90
10964;DHT22;5534;48.784;9.190;2023-05-07T00:32:08;16.90;99.90
10964;DHT22;5534;48.784;9.190;2023-05-07T00:34:34;17.00;99.90
10964;DHT22;5534;48.784;9.190;2023-05-07T00:37:01;17.10;99.90
10964;DHT22;5534;48.784;9.190;2023-05-07T00:39:26;17.20;99.90
10964;DHT22;5534;48.784;9.190;2023-05-07T00:41:52;17.10;99.90
10964;DHT22;5534;48.784;9.190;2023-05-07T00:44:18;17.10;99.90
10964;DHT22;5534;48.784;9.190;2023-05-07T00:46:44;17.00;99.90
10964;DHT22;5534;48.784;9.190;2023-05-07T00:49:11;16.90;99.90
10964;DHT22;5534;48.784;9.190;2023-05-07T00:51:37;17.00;99.90
10964;DHT22;5534;48.784;9.190;2023-05-07T00:54:03;17.10;99.90
10964;DHT22;5534;48.784;9.190;2023-05-07T00:56:29;16.90;99.90
10964;DHT22;5534;48.784;9.190;2023-05-07T00:58:54;17.10;99.90
10964;DHT22;5534;48.784;9.190;2023-05-07T01:01:20;16.80;99.90
10964;DHT22;5534;48.784;9.190;2023-05-07T01:03:46;16.90;99.90
10964;DHT22;5534;48.784;9.190;2023-05-07T01:06:13;16.80;99.90
10964;DHT22;5534;48.784;9.190;2023-05-07T01:08:42;16.70;99.90
10964;DHT22;5534;48.784;9.190;2023-05-07T01:11:08;16.70;99.90
10964;DHT22;5534;48.784;9.190;2023-05-07T01:13:35;16.90;99.90
10964;DHT22;5534;48.784;9.190;2023-05-07T01:16:03;16.90;99.90
10964;DHT22;5534;48.784;9.190;2023-05-07T01:18:29;17.00;99.90
10964;DHT22;5534;48.784;9.190;2023-05-07T01:20:57;17.00;99.90
10964;DHT22;5534;48.784;9.190;2023-05-07T01:23:24;16.80;99.90
10964;DHT22;5534;48.784;9.190;2023-05-07T01:25:52;16.80;99.90
10964;DHT22;5534;48.784;9.190;2023-05-07T01:28:18;16.90;99.90
10964;DHT22;5534;48.784;9.190;2023-05-07T01:30:49;16.90;99.90
10964;DHT22;5534;48.784;9.190;2023-05-07T01:33:19;16.90;99.90
10964;DHT22;5534;48.784;9.190;2023-05-07T01:35:48;17.00;99.90
10964;DHT22;5534;48.784;9.190;2023-05-07T01:38:16;16.80;99.90
10964;DHT22;5534;48.784;9.190;2023-05-07T01:40:42;16.50;99.90
10964;DHT22;5534;48.784;9.190;2023-05-07T01:43:09;16.50;99.90
10964;DHT22;5534;48.784;9.190;2023-05-07T01:45:35;16.30;99.90
10964;DHT22;5534;48.784;9.190;2023-05-07T01:48:02;16.50;99.90
10964;DHT22;5534;48.784;9.190;2023-05-07T01:50:28;16.40;99.90
10964;DHT22;5534;48.784;9.190;2023-05-07T01:52:55;16.50;99.90
10964;DHT22;5534;48.784;9.190;2023-05-07T01:55:21;16.70;99.90
10964;DHT22;5534;48.784;9.190;2023-05-07T01:57:47;16.50;99.90
10964;DHT22;5534;48.784;9.190;2023-05-07T02:00:13;16.60;99.90
10964;DHT22;5534;48.784;9.190;2023-05-07T02:02:39;16.70;99.90
10964;DHT22;5534;48.784;9.190;2023-05-07T02:05:05;16.70;99.90
10964;DHT22;5534;48.784;9.190;2023-05-07T02:07:31;16.60;99.90
10964;DHT22;5534;48.784;9.190;2023-05-07T02:09:56;16.60;99.90
10964;DHT22;5534;48.784;9.190;2023-05-07T02:12:22;16.60;99.90
10964;DHT22;5534;48.784;9.190;2023-05-07T02:14:49;16.30;99.90
10964;DHT22;5534;48.784;9.190;2023-05-07T02:17:14;16.20;99.90
10964;DHT22;5534;48.784;9.190;2023-05-07T02:19:40;16.20;99.90
10964;DHT22;5534;48.784;9.190;2023-05-07T02:22:07;16.00;99.90
10964;DHT22;5534;48.784;9.190;2023-05-07T02:24:32;15.80;99.90
10964;DHT22;5534;48.784;9.190;2023-05-07T02:26:58;15.90;99.90
10964;DHT22;5534;48.784;9.190;2023-05-07T02:29:24;16.00;99.90
10964;DHT22;5534;48.784;9.190;2023-05-07T02:31:50;16.20;99.90
10964;DHT22;5534;48.784;9.190;2023-05-07T02:34:18;16.30;99.90
10964;DHT22;5534;48.784;9.190;2023-05-07T02:36:44;16.40;99.90
10964;DHT22;5534;48.784;9.190;2023-05-07T02:39:11;16.50;99.90
10964;DHT22;5534;48.784;9.190;2023-05-07T02:41:37;16.40;99.90
10964;DHT22;5534;48.784;9.190;2023-05-07T02:44:03;16.50;99.90
10964;DHT22;5534;48.784;9.190;2023-05-07T02:46:29;16.50;99.90
10964;DHT22;5534;48.784;9.190;2023-05-07T02:48:55;16.40;99.90
10964;DHT22;5534;48.784;9.190;2023-05-07T02:51:22;16.50;99.90
10964;DHT22;5534;48.784;9.190;2023-05-07T02:53:48;16.30;99.90
10964;DHT22;5534;48.784;9.190;2023-05-07T02:56:14;16.30;99.90
10964;DHT22;5534;48.784;9.190;2023-05-07T02:58:40;16.30;99.90
10964;DHT22;5534;48.784;9.190;2023-05-07T03:01:07;16.30;99.90
10964;DHT22;5534;48.784;9.190;2023-05-07T03:03:34;16.10;99.90
10964;DHT22;5534;48.784;9.190;2023-05-07T03:05:59;16.00;99.90
10964;DHT22;5534;48.784;9.190;2023-05-07T03:08:25;16.00;99.90
10964;DHT22;5534;48.784;9.190;2023-05-07T03:10:51;16.00;99.90
10964;DHT22;5534;48.784;9.190;2023-05-07T03:13:17;16.00;99.90
10964;DHT22;5534;48.784;9.190;2023-05-07T03:15:43;15.90;99.90
10964;DHT22;5534;48.784;9.190;2023-05-07T03:18:08;16.00;99.90
10964;DHT22;5534;48.784;9.190;2023-05-07T03:20:34;16.10;99.90
10964;DHT22;5534;48.784;9.190;2023-05-07T03:23:02;16.20;99.90
10964;DHT22;5534;48.784;9.190;2023-05-07T03:25:28;16.10;99.90
10964;DHT22;5534;48.784;9.190;2023-05-07T03:27:56;16.10;99.90
10964;DHT22;5534;48.784;9.190;2023-05-07T03:30:21;16.10;99.90
10964;DHT22;5534;48.784;9.190;2023-05-07T03:32:47;16.00;99.90
10964;DHT22;5534;48.784;9.190;2023-05-07T03:35:13;15.90;99.90
10964;DHT22;5534;48.784;9.190;2023-05-07T03:37:39;16.10;99.90
10964;DHT22;5534;48.784;9.190;2023-05-07T03:40:06;16.00;99.90
10964;DHT22;5534;48.784;9.190;2023-05-07T03:42:32;16.00;99.90
10964;DHT22;5534;48.784;9.190;2023-05-07T03:44:57;16.00;99.90
10964;DHT22;5534;48.784;9.190;2023-05-07T03:47:23;16.10;99.90
10964;DHT22;5534;48.784;9.190;2023-05-07T03:49:49;16.10;99.90
10964;DHT22;5534;48.784;9.190;2023-05-07T03:52:16;16.00;99.90
10964;DHT22;5534;48.784;9.190;2023-05-07T03:54:41;15.80;99.90
10964;DHT22;5534;48.784;9.190;2023-05-07T03:57:07;15.80;99.90
10964;DHT22;5534;48.784;9.190;2023-05-07T03:59:33;15.60;99.90
10964;DHT22;5534;48.784;9.190;2023-05-07T04:01:58;15.70;99.90
10964;DHT22;5534;48.784;9.190;2023-05-07T04:04:24;15.60;99.90
10964;DHT22;5534;48.784;9.190;2023-05-07T04:06:50;15.50;99.90
10964;DHT22;5534;48.784;9.190;2023-05-07T04:09:17;15.20;99.90
10964;DHT22;5534;48.784;9.190;2023-05-07T04:11:42;15.10;99.90
10964;DHT22;5534;48.784;9.190;2023-05-07T04:14:08;15.10;99.90
10964;DHT22;5534;48.784;9.190;2023-05-07T04:16:35;15.20;99.90
10964;DHT22;5534;48.784;9.190;2023-05-07T04:19:00;15.40;99.90
10964;DHT22;5534;48.784;9.190;2023-05-07T04:21:26;15.50;99.90
10964;DHT22;5534;48.784;9.190;2023-05-07T04:23:52;15.60;99.90
10964;DHT22;5534;48.784;9.190;2023-05-07T04:26:18;15.80;99.90
10964;DHT22;5534;48.784;9.190;2023-05-07T04:28:43;15.70;99.90
10964;DHT22;5534;48.784;9.190;2023-05-07T04:31:09;15.60;99.90
10964;DHT22;5534;48.784;9.190;2023-05-07T04:33:35;15.40;99.90
10964;DHT22;5534;48.784;9.190;2023-05-07T04:36:01;15.50;99.90
10964;DHT22;5534;48.784;9.190;2023-05-07T04:38:30;15.60;99.90
10964;DHT22;5534;48.784;9.190;2023-05-07T04:40:57;15.70;99.90
10964;DHT22;5534;48.784;9.190;2023-05-07T04:43:23;15.90;99.90
10964;DHT22;5534;48.784;9.190;2023-05-07T04:45:52;16.00;99.90
10964;DHT22;5534;48.784;9.190;2023-05-07T04:48:18;16.10;99.90
10964;DHT22;5534;48.784;9.190;2023-05-07T04:50:49;16.00;99.90
10964;DHT22;5534;48.784;9.190;2023-05-07T04:53:15;16.00;99.90
10964;DHT22;5534;48.784;9.190;2023-05-07T04:55:41;16.10;99.90
10964;DHT22;5534;48.784;9.190;2023-05-07T04:58:07;16.10;99.90
10964;DHT22;5534;48.784;9.190;2023-05-07T05:00:33;16.10;99.90
10964;DHT22;5534;48.784;9.190;2023-05-07T05:02:59;16.00;99.90
10964;DHT22;5534;48.784;9.190;2023-05-07T05:05:25;16.00;99.90
10964;DHT22;5534;48.784;9.190;2023-05-07T05:07:50;16.00;99.90
10964;DHT22;5534;48.784;9.190;2023-05-07T05:10:17;15.90;99.90
10964;DHT22;5534;48.784;9.190;2023-05-07T05:12:43;15.90;99.90
10964;DHT22;5534;48.784;9.190;2023-05-07T05:15:11;15.90;99.90
10964;DHT22;5534;48.784;9.190;2023-05-07T05:17:39;16.00;99.90
10964;DHT22;5534;48.784;9.190;2023-05-07T05:20:06;16.00;99.90
10964;DHT22;5534;48.784;9.190;2023-05-07T05:22:32;16.00;99.90
10964;DHT22;5534;48.784;9.190;2023-05-07T05:24:58;16.00;99.90
10964;DHT22;5534;48.784;9.190;2023-05-07T05:27:24;16.10;99.90
10964;DHT22;5534;48.784;9.190;2023-05-07T05:29:50;16.10;99.90
10964;DHT22;5534;48.784;9.190;2023-05-07T05:32:15;16.00;99.90
10964;DHT22;5534;48.784;9.190;2023-05-07T05:34:41;16.20;99.90
10964;DHT22;5534;48.784;9.190;2023-05-07T05:37:07;16.30;99.90
10964;DHT22;5534;48.784;9.190;2023-05-07T05:39:33;16.30;99.90
10964;DHT22;5534;48.784;9.190;2023-05-07T05:41:58;16.30;99.90
10964;DHT22;5534;48.784;9.190;2023-05-07T05:44:24;16.30;99.90
10964;DHT22;5534;48.784;9.190;2023-05-07T05:46:50;16.30;99.90
10964;DHT22;5534;48.784;9.190;2023-05-07T05:49:16;16.30;99.90
10964;DHT22;5534;48.784;9.190;2023-05-07T05:51:42;16.40;99.90
10964;DHT22;5534;48.784;9.190;2023-05-07T05:54:09;16.30;99.90
10964;DHT22;5534;48.784;9.190;2023-05-07T05:56:34;16.10;99.90
10964;DHT22;5534;48.784;9.190;2023-05-07T05:59:00;16.10;99.90
10964;DHT22;5534;48.784;9.190;2023-05-07T06:01:26;16.40;99.90
10964;DHT22;5534;48.784;9.190;2023-05-07T06:03:52;16.40;99.90
10964;DHT22;5534;48.784;9.190;2023-05-07T06:06:17;16.50;99.90
10964;DHT22;5534;48.784;9.190;2023-05-07T06:08:43;16.50;99.90
10964;DHT22;5534;48.784;9.190;2023-05-07T06:11:09;16.50;99.90
10964;DHT22;5534;48.784;9.190;2023-05-07T06:13:35;16.70;99.90
10964;DHT22;5534;48.784;9.190;2023-05-07T06:16:01;16.80;99.90
10964;DHT22;5534;48.784;9.190;2023-05-07T06:18:26;16.80;99.90
10964;DHT22;5534;48.784;9.190;2023-05-07T06:20:53;16.90;99.90
10964;DHT22;5534;48.784;9.190;2023-05-07T06:23:18;16.60;99.90
10964;DHT22;5534;48.784;9.190;2023-05-07T06:25:51;16.70;99.90
10964;DHT22;5534;48.784;9.190;2023-05-07T06:28:17;16.50;99.90
10964;DHT22;5534;48.784;9.190;2023-05-07T06:30:42;16.60;99.90
10964;DHT22;5534;48.784;9.190;2023-05-07T06:33:08;17.00;99.90
10964;DHT22;5534;48.784;9.190;2023-05-07T06:35:35;17.30;99.90
10964;DHT22;5534;48.784;9.190;2023-05-07T06:38:02;17.70;99.90
10964;DHT22;5534;48.784;9.190;2023-05-07T06:40:28;18.10;99.90
10964;DHT22;5534;48.784;9.190;2023-05-07T06:42:54;19.00;99.90
10964;DHT22;5534;48.784;9.190;2023-05-07T06:45:20;19.70;99.90
10964;DHT22;5534;48.784;9.190;2023-05-07T06:47:46;20.20;99.90
10964;DHT22;5534;48.784;9.190;2023-05-07T06:50:12;20.40;99.90
10964;DHT22;5534;48.784;9.190;2023-05-07T06:52:37;20.30;99.90
10964;DHT22;5534;48.784;9.190;2023-05-07T06:55:03;20.60;99.90
10964;DHT22;5534;48.784;9.190;2023-05-07T06:57:29;21.20;99.90
10964;DHT22;5534;48.784;9.190;2023-05-07T06:59:55;22.00;99.90
10964;DHT22;5534;48.784;9.190;2023-05-07T07:02:21;22.70;99.90
10964;DHT22;5534;48.784;9.190;2023-05-07T07:04:47;23.20;99.90
10964;DHT22;5534;48.784;9.190;2023-05-07T07:07:12;23.80;99.90
10964;DHT22;5534;48.784;9.190;2023-05-07T07:09:38;23.70;99.90
10964;DHT22;5534;48.784;9.190;2023-05-07T07:12:04;23.30;99.90
10964;DHT22;5534;48.784;9.190;2023-05-07T07:14:30;22.90;99.90
10964;DHT22;5534;48.784;9.190;2023-05-07T07:16:56;22.70;99.90
10964;DHT22;5534;48.784;9.190;2023-05-07T07:19:21;22.60;99.90
10964;DHT22;5534;48.784;9.190;2023-05-07T07:21:47;22.70;99.90
10964;DHT22;5534;48.784;9.190;2023-05-07T07:24:14;22.70;99.90
10964;DHT22;5534;48.784;9.190;2023-05-07T07:26:45;22.90;99.90
10964;DHT22;5534;48.784;9.190;2023-05-07T07:29:10;22.90;99.90
10964;DHT22;5534;48.784;9.190;2023-05-07T07:31:36;22.80;99.90
10964;DHT22;5534;48.784;9.190;2023-05-07T07:34:02;22.90;99.90
10964;DHT22;5534;48.784;9.190;2023-05-07T07:36:27;22.90;99.90
10964;DHT22;5534;48.784;9.190;2023-05-07T07:38:53;23.30;99.90
10964;DHT22;5534;48.784;9.190;2023-05-07T07:41:19;23.10;99.90
10964;DHT22;5534;48.784;9.190;2023-05-07T07:43:45;22.70;99.90
10964;DHT22;5534;48.784;9.190;2023-05-07T07:46:12;22.90;99.90
10964;DHT22;5534;48.784;9.190;2023-05-07T07:48:38;23.10;99.90
10964;DHT22;5534;48.784;9.190;2023-05-07T07:51:04;23.40;99.90
10964;DHT22;5534;48.784;9.190;2023-05-07T07:53:30;23.70;99.90
10964;DHT22;5534;48.784;9.190;2023-05-07T07:55:56;23.50;99.90
10964;DHT22;5534;48.784;9.190;2023-05-07T07:58:22;23.30;99.90
10964;DHT22;5534;48.784;9.190;2023-05-07T08:00:48;22.90;99.90
10964;DHT22;5534;48.784;9.190;2023-05-07T08:03:14;22.60;99.90
10964;DHT22;5534;48.784;9.190;2023-05-07T08:05:42;22.40;99.90
10964;DHT22;5534;48.784;9.190;2023-05-07T08:08:08;22.20;99.90
10964;DHT22;5534;48.784;9.190;2023-05-07T08:10:34;22.00;99.90
10964;DHT22;5534;48.784;9.190;2023-05-07T08:13:00;21.80;99.90
10964;DHT22;5534;48.784;9.190;2023-05-07T08:15:27;21.90;99.90
10964;DHT22;5534;48.784;9.190;2023-05-07T08:17:53;21.80;99.90
10964;DHT22;5534;48.784;9.190;2023-05-07T08:20:18;21.80;99.90
10964;DHT22;5534;48.784;9.190;2023-05-07T08:22:44;22.10;99.90
10964;DHT22;5534;48.784;9.190;2023-05-07T08:25:10;22.30;99.90
10964;DHT22;5534;48.784;9.190;2023-05-07T08:27:36;22.60;99.90
10964;DHT22;5534;48.784;9.190;2023-05-07T08:30:03;22.80;99.90
10964;DHT22;5534;48.784;9.190;2023-05-07T08:32:29;23.30;99.90
10964;DHT22;5534;48.784;9.190;2023-05-07T08:34:54;23.70;99.90
10964;DHT22;5534;48.784;9.190;2023-05-07T08:37:21;24.10;99.90
10964;DHT22;5534;48.784;9.190;2023-05-07T08:39:46;24.30;99.90
10964;DHT22;5534;48.784;9.190;2023-05-07T08:42:13;24.10;99.90
10964;DHT22;5534;48.784;9.190;2023-05-07T08:44:47;24.00;99.90
10964;DHT22;5534;48.784;9.190;2023-05-07T08:47:13;23.60;99.90
10964;DHT22;5534;48.784;9.190;2023-05-07T08:49:39;23.40;99.90
10964;DHT22;5534;48.784;9.190;2023-05-07T08:52:05;23.60;99.90
10964;DHT22;5534;48.784;9.190;2023-05-07T08:54:32;23.70;99.90
10964;DHT22;5534;48.784;9.190;2023-05-07T08:56:59;23.80;99.90
10964;DHT22;5534;48.784;9.190;2023-05-07T08:59:25;23.80;99.90
10964;DHT22;5534;48.784;9.190;2023-05-07T09:01:51;23.70;99.90
10964;DHT22;5534;48.784;9.190;2023-05-07T09:04:17;23.70;99.90
10964;DHT22;5534;48.784;9.190;2023-05-07T09:06:50;23.60;99.90
10964;DHT22;5534;48.784;9.190;2023-05-07T09:09:22;23.60;99.90
10964;DHT22;5534;48.784;9.190;2023-05-07T09:11:47;23.40;99.90
10964;DHT22;5534;48.784;9.190;2023-05-07T09:14:13;23.30;99.90
10964;DHT22;5534;48.784;9.190;2023-05-07T09:16:43;23.40;99.90
10964;DHT22;5534;48.784;9.190;2023-05-07T09:19:08;23.50;99.90
10964;DHT22;5534;48.784;9.190;2023-05-07T09:21:35;23.70;99.90
10964;DHT22;5534;48.784;9.190;2023-05-07T09:24:01;23.70;99.90
10964;DHT22;5534;48.784;9.190;2023-05-07T09:26:26;23.80;99.90
10964;DHT22;5534;48.784;9.190;2023-05-07T09:28:53;24.10;99.90
10964;DHT22;5534;48.784;9.190;2023-05-07T09:31:20;24.10;99.90
10964;DHT22;5534;48.784;9.190;2023-05-07T09:33:49;24.10;99.90
10964;DHT22;5534;48.784;9.190;2023-05-07T09:36:15;23.80;99.90
10964;DHT22;5534;48.784;9.190;2023-05-07T09:38:41;23.50;99.90
10964;DHT22;5534;48.784;9.190;2023-05-07T09:41:12;23.50;99.90
10964;DHT22;5534;48.784;9.190;2023-05-07T09:43:39;23.60;99.90
10964;DHT22;5534;48.784;9.190;2023-05-07T09:46:13;23.70;99.90
10964;DHT22;5534;48.784;9.190;2023-05-07T09:48:40;23.80;99.90
10964;DHT22;5534;48.784;9.190;2023-05-07T09:51:18;23.90;99.90
10964;DHT22;5534;48.784;9.190;2023-05-07T09:53:45;23.90;99.90
10964;DHT22;5534;48.784;9.190;2023-05-07T09:56:13;23.70;99.90
10964;DHT22;5534;48.784;9.190;2023-05-07T09:58:41;23.80;99.90
10964;DHT22;5534;48.784;9.190;2023-05-07T10:01:07;23.90;99.90
10964;DHT22;5534;48.784;9.190;2023-05-07T10:03:35;23.90;99.90
10964;DHT22;5534;48.784;9.190;2023-05-07T10:06:01;24.10;99.90
10964;DHT22;5534;48.784;9.190;2023-05-07T10:08:30;24.10;99.90
10964;DHT22;5534;48.784;9.190;2023-05-07T10:10:57;24.10;99.90
10964;DHT22;5534;48.784;9.190;2023-05-07T10:13:24;24.20;99.90
10964;DHT22;5534;48.784;9.190;2023-05-07T10:15:50;24.20;99.90
10964;DHT22;5534;48.784;9.190;2023-05-07T10:18:16;24.20;99.90
10964;DHT22;5534;48.784;9.190;2023-05-07T10:20:45;24.30;99.90
10964;DHT22;5534;48.784;9.190;2023-05-07T10:23:14;24.40;99.90
10964;DHT22;5534;48.784;9.190;2023-05-07T10:25:43;24.30;99.90
10964;DHT22;5534;48.784;9.190;2023-05-07T10:28:10;24.20;99.90
10964;DHT22;5534;48.784;9.190;2023-05-07T10:33:29;23.90;99.90
10964;DHT22;5534;48.784;9.190;2023-05-07T10:35:58;23.80;99.90
10964;DHT22;5534;48.784;9.190;2023-05-07T10:38:25;23.70;99.90
10964;DHT22;5534;48.784;9.190;2023-05-07T10:40:52;23.80;99.90
10964;DHT22;5534;48.784;9.190;2023-05-07T10:43:18;23.90;99.90
10964;DHT22;5534;48.784;9.190;2023-05-07T10:46:09;23.90;99.90
10964;DHT22;5534;48.784;9.190;2023-05-07T10:51:32;24.20;99.90
10964;DHT22;5534;48.784;9.190;2023-05-07T10:56:37;23.90;99.90
10964;DHT22;5534;48.784;9.190;2023-05-07T11:02:00;23.70;99.90
10964;DHT22;5534;48.784;9.190;2023-05-07T11:04:28;23.80;99.90
10964;DHT22;5534;48.784;9.190;2023-05-07T11:12:17;24.10;99.90
10964;DHT22;5534;48.784;9.190;2023-05-07T11:14:46;24.20;99.90
10964;DHT22;5534;48.784;9.190;2023-05-07T11:17:12;24.20;99.90
10964;DHT22;5534;48.784;9.190;2023-05-07T11:19:54;24.00;99.90
10964;DHT22;5534;48.784;9.190;2023-05-07T11:25:07;24.00;99.90
10964;DHT22;5534;48.784;9.190;2023-05-07T11:27:33;23.90;99.90
10964;DHT22;5534;48.784;9.190;2023-05-07T11:29:59;24.10;99.90
10964;DHT22;5534;48.784;9.190;2023-05-07T11:32:31;24.10;99.90
10964;DHT22;5534;48.784;9.190;2023-05-07T11:34:58;23.80;99.90
10964;DHT22;5534;48.784;9.190;2023-05-07T11:37:25;23.60;99.90
10964;DHT22;5534;48.784;9.190;2023-05-07T11:40:03;23.70;99.90
10964;DHT22;5534;48.784;9.190;2023-05-07T11:42:30;23.60;99.90
10964;DHT22;5534;48.784;9.190;2023-05-07T11:44:57;23.60;99.90
10964;DHT22;5534;48.784;9.190;2023-05-07T11:47:24;23.70;99.90
10964;DHT22;5534;48.784;9.190;2023-05-07T11:49:52;23.60;99.90
10964;DHT22;5534;48.784;9.190;2023-05-07T11:52:19;23.50;99.90
10964;DHT22;5534;48.784;9.190;2023-05-07T11:54:53;23.50;99.90
10964;DHT22;5534;48.784;9.190;2023-05-07T11:57:21;23.40;99.90
10964;DHT22;5534;48.784;9.190;2023-05-07T11:59:47;23.50;99.90
10964;DHT22;5534;48.784;9.190;2023-05-07T12:02:14;23.30;99.90
10964;DHT22;5534;48.784;9.190;2023-05-07T12:04:41;23.30;99.90
10964;DHT22;5534;48.784;9.190;2023-05-07T12:07:14;23.10;99.90
10964;DHT22;5534;48.784;9.190;2023-05-07T12:09:41;23.10;99.90
10964;DHT22;5534;48.784;9.190;2023-05-07T12:12:07;23.20;99.90
10964;DHT22;5534;48.784;9.190;2023-05-07T12:14:33;23.10;99.90
10964;DHT22;5534;48.784;9.190;2023-05-07T12:17:03;22.90;99.90
10964;DHT22;5534;48.784;9.190;2023-05-07T12:19:30;22.80;99.90
10964;DHT22;5534;48.784;9.190;2023-05-07T12:21:57;22.80;99.90
10964;DHT22;5534;48.784;9.190;2023-05-07T12:24:23;22.70;99.90
10964;DHT22;5534;48.784;9.190;2023-05-07T12:26:48;22.40;99.90
10964;DHT22;5534;48.784;9.190;2023-05-07T12:29:14;22.20;99.90
10964;DHT22;5534;48.784;9.190;2023-05-07T12:31:43;21.80;99.90
10964;DHT22;5534;48.784;9.190;2023-05-07T12:34:12;21.60;99.90
10964;DHT22;5534;48.784;9.190;2023-05-07T12:36:39;21.30;99.90
10964;DHT22;5534;48.784;9.190;2023-05-07T12:39:09;21.00;99.90
10964;DHT22;5534;48.784;9.190;2023-05-07T12:42:04;20.60;99.90
10964;DHT22;5534;48.784;9.190;2023-05-07T12:44:32;20.40;99.90
10964;DHT22;5534;48.784;9.190;2023-05-07T12:47:01;20.30;99.90
10964;DHT22;5534;48.784;9.190;2023-05-07T12:49:27;20.20;99.90
10964;DHT22;5534;48.784;9.190;2023-05-07T12:51:54;20.10;99.90
10964;DHT22;5534;48.784;9.190;2023-05-07T12:54:29;20.00;99.90
10964;DHT22;5534;48.784;9.190;2023-05-07T12:59:36;19.70;99.90
10964;DHT22;5534;48.784;9.190;2023-05-07T13:02:02;19.70;99.90
10964;DHT22;5534;48.784;9.190;2023-05-07T13:04:28;19.60;99.90
10964;DHT22;5534;48.784;9.190;2023-05-07T13:06:54;19.40;99.90
10964;DHT22;5534;48.784;9.190;2023-05-07T13:09:20;19.20;99.90
10964;DHT22;5534;48.784;9.190;2023-05-07T13:11:45;19.00;99.90
10964;DHT22;5534;48.784;9.190;2023-05-07T13:14:12;18.60;99.90
10964;DHT22;5534;48.784;9.190;2023-05-07T13:16:37;18.20;99.90
10964;DHT22;5534;48.784;9.190;2023-05-07T13:19:03;17.60;99.90
10964;DHT22;5534;48.784;9.190;2023-05-07T13:21:29;17.20;99.90
10964;DHT22;5534;48.784;9.190;2023-05-07T13:23:57;16.90;99.90
10964;DHT22;5534;48.784;9.190;2023-05-07T13:26:24;16.70;99.90
10964;DHT22;5534;48.784;9.190;2023-05-07T13:28:50;16.80;99.90
10964;DHT22;5534;48.784;9.190;2023-05-07T13:31:19;16.80;99.90
10964;DHT22;5534;48.784;9.190;2023-05-07T13:33:46;16.80;99.90
10964;DHT22;5534;48.784;9.190;2023-05-07T13:36:12;16.80;99.90
10964;DHT22;5534;48.784;9.190;2023-05-07T13:38:39;16.80;99.90
10964;DHT22;5534;48.784;9.190;2023-05-07T13:41:05;16.80;99.90
10964;DHT22;5534;48.784;9.190;2023-05-07T13:43:31;16.90;99.90
10964;DHT22;5534;48.784;9.190;2023-05-07T13:45:59;17.00;99.90
10964;DHT22;5534;48.784;9.190;2023-05-07T13:48:25;17.00;99.90
10964;DHT22;5534;48.784;9.190;2023-05-07T13:50:51;17.00;99.90
10964;DHT22;5534;48.784;9.190;2023-05-07T13:53:17;17.00;99.90
10964;DHT22;5534;48.784;9.190;2023-05-07T13:55:44;16.80;99.90
10964;DHT22;5534;48.784;9.190;2023-05-07T13:58:10;16.60;99.90
10964;DHT22;5534;48.784;9.190;2023-05-07T14:00:37;16.50;99.90
10964;DHT22;5534;48.784;9.190;2023-05-07T14:03:04;16.50;99.90
10964;DHT22;5534;48.784;9.190;2023-05-07T14:05:30;16.40;99.90
10964;DHT22;5534;48.784;9.190;2023-05-07T14:08:00;16.50;99.90
10964;DHT22;5534;48.784;9.190;2023-05-07T14:10:25;16.60;99.90
10964;DHT22;5534;48.784;9.190;2023-05-07T14:12:51;16.70;99.90
10964;DHT22;5534;48.784;9.190;2023-05-07T14:15:18;16.80;99.90
10964;DHT22;5534;48.784;9.190;2023-05-07T14:17:44;16.80;99.90
10964;DHT22;5534;48.784;9.190;2023-05-07T14:20:11;17.00;99.90
10964;DHT22;5534;48.784;9.190;2023-05-07T14:22:37;17.10;99.90
10964;DHT22;5534;48.784;9.190;2023-05-07T14:25:03;17.20;99.90
10964;DHT22;5534;48.784;9.190;2023-05-07T14:27:29;17.20;99.90
10964;DHT22;5534;48.784;9.190;2023-05-07T14:29:55;17.20;99.90
10964;DHT22;5534;48.784;9.190;2023-05-07T14:32:21;17.30;99.90
10964;DHT22;5534;48.784;9.190;2023-05-07T14:34:47;17.20;99.90
10964;DHT22;5534;48.784;9.190;2023-05-07T14:37:12;17.30;99.90
10964;DHT22;5534;48.784;9.190;2023-05-07T14:39:38;17.30;99.90
10964;DHT22;5534;48.784;9.190;2023-05-07T14:42:04;17.30;99.90
10964;DHT22;5534;48.784;9.190;2023-05-07T14:44:31;17.40;99.90
10964;DHT22;5534;48.784;9.190;2023-05-07T14:46:56;17.40;99.90
10964;DHT22;5534;48.784;9.190;2023-05-07T14:49:22;17.30;99.90
10964;DHT22;5534;48.784;9.190;2023-05-07T14:51:49;17.40;99.90
10964;DHT22;5534;48.784;9.190;2023-05-07T14:54:16;17.40;99.90
10964;DHT22;5534;48.784;9.190;2023-05-07T14:56:42;17.40;99.90
10964;DHT22;5534;48.784;9.190;2023-05-07T14:59:08;17.50;99.90
10964;DHT22;5534;48.784;9.190;2023-05-07T15:01:35;17.20;99.90
10964;DHT22;5534;48.784;9.190;2023-05-07T15:04:03;17.20;99.90
10964;DHT22;5534;48.784;9.190;2023-05-07T15:06:29;17.40;99.90
10964;DHT22;5534;48.784;9.190;2023-05-07T15:08:55;17.50;99.90
10964;DHT22;5534;48.784;9.190;2023-05-07T15:11:20;17.50;99.90
10964;DHT22;5534;48.784;9.190;2023-05-07T15:13:46;17.50;99.90
10964;DHT22;5534;48.784;9.190;2023-05-07T15:16:12;17.60;99.90
10964;DHT22;5534;48.784;9.190;2023-05-07T15:18:38;17.40;99.90
10964;DHT22;5534;48.784;9.190;2023-05-07T15:21:04;17.50;99.90
10964;DHT22;5534;48.784;9.190;2023-05-07T15:23:30;17.50;99.90
10964;DHT22;5534;48.784;9.190;2023-05-07T15:25:56;17.80;99.90
10964;DHT22;5534;48.784;9.190;2023-05-07T15:28:22;17.90;99.90
10964;DHT22;5534;48.784;9.190;2023-05-07T15:30:48;17.90;99.90
10964;DHT22;5534;48.784;9.190;2023-05-07T15:33:13;17.90;99.90
10964;DHT22;5534;48.784;9.190;2023-05-07T15:35:39;17.90;99.90
10964;DHT22;5534;48.784;9.190;2023-05-07T15:38:05;17.80;99.90
10964;DHT22;5534;48.784;9.190;2023-05-07T15:40:31;17.80;99.90
10964;DHT22;5534;48.784;9.190;2023-05-07T15:43:00;18.00;99.90
10964;DHT22;5534;48.784;9.190;2023-05-07T15:45:26;18.00;99.90
10964;DHT22;5534;48.784;9.190;2023-05-07T15:47:52;18.10;99.90
10964;DHT22;5534;48.784;9.190;2023-05-07T15:50:17;18.00;99.90
10964;DHT22;5534;48.784;9.190;2023-05-07T15:52:43;18.00;99.90
10964;DHT22;5534;48.784;9.190;2023-05-07T15:55:11;18.00;99.90
10964;DHT22;5534;48.784;9.190;2023-05-07T15:57:37;18.10;99.90
10964;DHT22;5534;48.784;9.190;2023-05-07T16:00:03;17.90;99.90
10964;DHT22;5534;48.784;9.190;2023-05-07T16:02:30;18.00;99.90